Time;durP1;ratioP1;P1;durP2;ratioP2;P2;SDS_P1;SDS_P2;PMS_P1;PMS_P2;Temp;Humidity;BMP_temperature;BMP_pressure;BME280_temperature;BME280_humidity;BME280_pressure;Samples;Min_cycle;Max_cycle;Signal;HPM_P1;HPM_P2
2022/07/21 00:00:20;;;;;;;13.90;10.67;;;20.90;99.90;;;;;;5055754;28;20223;-58
2022/07/21 00:02:50;;;;;;;13.07;10.67;;;20.90;99.90;;;;;;5056037;28;20227;-58
2022/07/21 00:05:18;;;;;;;15.03;10.97;;;20.90;99.90;;;;;;5056318;28;20231;-58
2022/07/21 00:07:47;;;;;;;15.83;10.90;;;20.80;99.90;;;;;;5056119;28;20215;-58
2022/07/21 00:10:17;;;;;;;17.90;10.77;;;20.80;99.90;;;;;;5056164;28;20307;-59
2022/07/21 00:12:45;;;;;;;13.37;11.43;;;20.80;99.90;;;;;;5060226;28;20270;-59
2022/07/21 00:15:17;;;;;;;13.63;10.73;;;20.80;99.90;;;;;;5056028;28;20310;-58
2022/07/21 00:17:45;;;;;;;16.27;11.07;;;20.70;99.90;;;;;;5055584;28;20257;-58
2022/07/21 00:20:15;;;;;;;14.43;10.73;;;20.70;99.90;;;;;;5055798;28;20232;-59
2022/07/21 00:22:43;;;;;;;16.17;11.00;;;20.70;99.90;;;;;;5055913;28;20266;-58
2022/07/21 00:25:13;;;;;;;14.67;10.77;;;20.70;99.90;;;;;;5055920;28;20232;-59
2022/07/21 00:27:42;;;;;;;14.33;10.70;;;20.70;99.90;;;;;;5055402;28;20306;-59
2022/07/21 00:30:12;;;;;;;15.00;10.50;;;20.60;99.90;;;;;;5047870;28;20345;-59
2022/07/21 00:32:42;;;;;;;14.23;10.77;;;20.60;99.90;;;;;;5055439;28;20259;-59
2022/07/21 00:35:12;;;;;;;11.90;10.63;;;20.60;99.90;;;;;;5035830;28;20232;-59
2022/07/21 00:37:41;;;;;;;11.33;9.83;;;20.60;99.90;;;;;;5035293;28;20256;-58
2022/07/21 00:40:10;;;;;;;13.60;10.63;;;20.60;99.90;;;;;;5042144;28;20311;-58
2022/07/21 00:42:38;;;;;;;14.13;10.60;;;20.50;99.90;;;;;;5059570;28;20231;-58
2022/07/21 00:45:09;;;;;;;13.23;9.60;;;20.50;99.90;;;;;;5055490;28;20274;-59
2022/07/21 00:47:38;;;;;;;13.07;10.23;;;20.50;99.90;;;;;;5055476;28;20334;-58
2022/07/21 00:50:10;;;;;;;13.53;10.43;;;20.50;99.90;;;;;;5055276;28;20574;-58
2022/07/21 00:52:39;;;;;;;12.27;10.67;;;20.40;99.90;;;;;;5054582;28;20260;-58
2022/07/21 00:55:09;;;;;;;11.40;9.37;;;20.40;99.90;;;;;;5055710;28;20730;-59
2022/07/21 00:57:37;;;;;;;10.73;9.43;;;20.40;99.90;;;;;;5055134;28;20235;-59
2022/07/21 01:00:09;;;;;;;12.73;9.40;;;20.40;99.90;;;;;;5054812;28;20267;-58
2022/07/21 01:02:37;;;;;;;12.83;9.43;;;20.40;99.90;;;;;;5053814;28;20286;-59
2022/07/21 01:05:12;;;;;;;13.33;9.90;;;20.40;99.90;;;;;;5054542;28;20746;-58
2022/07/21 01:07:41;;;;;;;12.60;9.63;;;20.30;99.90;;;;;;5054766;28;20298;-59
2022/07/21 01:10:10;;;;;;;11.40;9.27;;;20.30;99.90;;;;;;5054701;28;20220;-59
2022/07/21 01:12:39;;;;;;;12.23;9.50;;;20.30;99.90;;;;;;5054775;28;20594;-58
2022/07/21 01:15:09;;;;;;;13.70;9.40;;;20.30;99.90;;;;;;5054637;28;20725;-59
2022/07/21 01:17:37;;;;;;;13.63;9.77;;;20.30;99.90;;;;;;5054631;28;20270;-59
2022/07/21 01:20:11;;;;;;;14.20;9.80;;;20.30;99.90;;;;;;5054485;28;20690;-58
2022/07/21 01:22:42;;;;;;;14.27;10.40;;;20.30;99.90;;;;;;5054729;28;20236;-58
2022/07/21 01:25:11;;;;;;;15.53;9.73;;;20.30;99.90;;;;;;5054550;28;20264;-59
2022/07/21 01:27:40;;;;;;;14.17;9.70;;;20.30;99.90;;;;;;5054687;28;20639;-59
2022/07/21 01:30:09;;;;;;;14.03;9.50;;;20.20;99.90;;;;;;5054458;28;20227;-58
2022/07/21 01:32:39;;;;;;;14.17;9.53;;;20.20;99.90;;;;;;5054252;28;20326;-59
2022/07/21 01:35:10;;;;;;;15.70;10.47;;;20.20;99.90;;;;;;5054676;28;20322;-58
2022/07/21 01:37:41;;;;;;;14.53;9.90;;;20.20;99.90;;;;;;5054505;28;20251;-58
2022/07/21 01:42:57;;;;;;;14.90;9.30;;;20.20;99.90;;;;;;5054034;28;20683;-58
2022/07/21 01:45:28;;;;;;;11.40;9.20;;;20.10;99.90;;;;;;5053992;28;20232;-58
2022/07/21 01:47:56;;;;;;;16.70;9.93;;;20.10;99.90;;;;;;5054002;28;20281;-59
2022/07/21 01:50:26;;;;;;;17.77;9.77;;;20.10;99.90;;;;;;5054208;28;20220;-58
2022/07/21 01:52:58;;;;;;;14.90;9.97;;;20.10;99.90;;;;;;5053979;28;20258;-58
2022/07/21 01:55:28;;;;;;;15.43;9.30;;;20.00;99.90;;;;;;5053946;28;20258;-59
2022/07/21 01:57:57;;;;;;;16.03;10.53;;;20.00;99.90;;;;;;5054148;28;20687;-58
2022/07/21 02:00:25;;;;;;;15.23;10.07;;;19.90;99.90;;;;;;5053607;28;20707;-57
2022/07/21 02:02:53;;;;;;;12.73;9.90;;;19.90;99.90;;;;;;5053937;28;20224;-58
2022/07/21 02:05:22;;;;;;;11.73;9.40;;;19.90;99.90;;;;;;5053866;28;20306;-58
2022/07/21 02:07:51;;;;;;;14.27;9.27;;;19.90;99.90;;;;;;5054005;28;20236;-58
2022/07/21 02:10:20;;;;;;;16.90;11.50;;;19.90;99.90;;;;;;5054028;28;20216;-59
2022/07/21 02:12:48;;;;;;;11.63;9.77;;;19.90;99.90;;;;;;5053600;28;20228;-59
2022/07/21 02:15:16;;;;;;;14.87;9.73;;;19.80;99.90;;;;;;5053536;28;20310;-58
2022/07/21 02:17:45;;;;;;;12.23;9.47;;;19.90;99.90;;;;;;5053531;28;20317;-58
2022/07/21 02:20:13;;;;;;;16.20;9.70;;;19.90;99.90;;;;;;5053692;28;20333;-59
2022/07/21 02:22:44;;;;;;;13.33;9.67;;;19.90;99.90;;;;;;5053546;28;20247;-58
2022/07/21 02:25:13;;;;;;;12.10;9.17;;;19.90;99.90;;;;;;5053583;28;20322;-59
2022/07/21 02:27:43;;;;;;;14.80;9.23;;;19.90;99.90;;;;;;5053187;28;20260;-58
2022/07/21 02:30:12;;;;;;;16.40;9.30;;;19.80;99.90;;;;;;5045101;28;20219;-57
2022/07/21 02:32:41;;;;;;;12.17;9.30;;;19.80;99.90;;;;;;5053297;28;20695;-59
2022/07/21 02:35:09;;;;;;;11.33;8.93;;;19.80;99.90;;;;;;5053505;28;20284;-58
2022/07/21 02:37:38;;;;;;;13.17;8.80;;;19.80;99.90;;;;;;5053327;28;20227;-58
2022/07/21 02:40:07;;;;;;;11.77;8.93;;;19.80;99.90;;;;;;5053337;28;20259;-58
2022/07/21 02:42:37;;;;;;;11.20;8.63;;;19.80;99.90;;;;;;5052891;28;20619;-58
2022/07/21 02:45:09;;;;;;;15.37;8.97;;;19.80;99.90;;;;;;5052577;28;20235;-59
2022/07/21 02:47:49;;;;;;;14.07;9.00;;;19.80;99.90;;;;;;5052847;28;20232;-59
2022/07/21 02:50:18;;;;;;;12.40;9.17;;;19.80;99.90;;;;;;5053390;28;20251;-59
2022/07/21 02:52:47;;;;;;;15.13;8.77;;;19.80;99.90;;;;;;5052767;28;20250;-58
2022/07/21 02:55:15;;;;;;;13.30;8.07;;;19.80;99.90;;;;;;5053354;28;20710;-58
2022/07/21 02:57:43;;;;;;;12.60;8.93;;;19.70;99.90;;;;;;5052522;28;20818;-58
2022/07/21 03:00:13;;;;;;;11.93;8.53;;;19.70;99.90;;;;;;5044402;28;20595;-58
2022/07/21 03:02:41;;;;;;;12.60;7.87;;;19.80;99.90;;;;;;5053023;28;20270;-58
2022/07/21 03:05:09;;;;;;;10.70;7.47;;;19.80;99.90;;;;;;5053089;28;20324;-58
2022/07/21 03:07:38;;;;;;;12.53;8.70;;;19.80;99.90;;;;;;5052624;28;20240;-58
2022/07/21 03:10:07;;;;;;;12.40;8.30;;;19.80;99.90;;;;;;5052668;28;20243;-59
2022/07/21 03:12:35;;;;;;;14.33;9.10;;;19.80;99.90;;;;;;5052748;28;20312;-59
2022/07/21 03:15:03;;;;;;;13.87;8.97;;;19.70;99.90;;;;;;5052791;28;20319;-58
2022/07/21 03:17:33;;;;;;;12.07;8.03;;;19.70;99.90;;;;;;5052621;28;20639;-59
2022/07/21 03:20:01;;;;;;;12.57;8.37;;;19.70;99.90;;;;;;5052513;28;20288;-58
2022/07/21 03:22:29;;;;;;;11.83;8.13;;;19.70;99.90;;;;;;5052495;28;20322;-58
2022/07/21 03:24:57;;;;;;;16.50;8.60;;;19.70;99.90;;;;;;5053289;28;20314;-58
2022/07/21 03:27:25;;;;;;;13.73;8.77;;;19.70;99.90;;;;;;5055018;28;20223;-58
2022/07/21 03:29:53;;;;;;;10.13;7.70;;;19.70;99.90;;;;;;5052807;28;20326;-59
2022/07/21 03:32:22;;;;;;;11.97;8.13;;;19.80;99.90;;;;;;5051426;28;20234;-58
2022/07/21 03:34:51;;;;;;;12.20;8.17;;;19.80;99.90;;;;;;5053594;28;20235;-58
2022/07/21 03:37:19;;;;;;;10.97;7.60;;;19.80;99.90;;;;;;5052771;28;20266;-59
2022/07/21 03:39:47;;;;;;;13.43;8.43;;;19.80;99.90;;;;;;5053591;28;20239;-58
2022/07/21 03:42:15;;;;;;;15.43;8.47;;;19.80;99.90;;;;;;5052456;28;20227;-59
2022/07/21 03:44:43;;;;;;;12.07;8.47;;;19.80;99.90;;;;;;5052993;28;20691;-59
2022/07/21 03:47:12;;;;;;;12.60;7.80;;;19.90;99.90;;;;;;5055354;28;20774;-59
2022/07/21 03:49:40;;;;;;;10.23;7.93;;;19.90;99.90;;;;;;5058903;28;20323;-62
2022/07/21 03:52:10;;;;;;;10.50;7.23;;;19.90;99.90;;;;;;5059161;28;20354;-62
2022/07/21 03:54:38;;;;;;;9.63;6.77;;;20.00;99.90;;;;;;5058992;28;20763;-60
2022/07/21 03:57:06;;;;;;;10.13;7.10;;;20.00;99.90;;;;;;5060887;28;20250;-61
2022/07/21 03:59:34;;;;;;;11.90;7.23;;;20.10;99.90;;;;;;5057582;28;20231;-60
2022/07/21 04:02:02;;;;;;;14.03;7.37;;;20.10;99.90;;;;;;5065650;28;20329;-60
2022/07/21 04:04:30;;;;;;;9.17;6.97;;;20.10;99.90;;;;;;5058618;28;20259;-60
2022/07/21 04:06:58;;;;;;;10.00;7.10;;;20.10;99.90;;;;;;5057855;28;20315;-60
2022/07/21 04:09:28;;;;;;;10.83;6.90;;;20.10;99.90;;;;;;5057765;28;20274;-58
2022/07/21 04:11:56;;;;;;;11.70;6.90;;;20.10;99.90;;;;;;5058225;28;20238;-61
2022/07/21 04:14:24;;;;;;;9.97;6.87;;;20.10;99.90;;;;;;5057477;28;20250;-62
2022/07/21 04:16:52;;;;;;;12.07;7.00;;;20.10;99.90;;;;;;5058514;28;20734;-60
2022/07/21 04:19:20;;;;;;;11.77;6.60;;;20.10;99.90;;;;;;5058738;28;20577;-60
2022/07/21 04:21:52;;;;;;;9.07;6.83;;;20.10;99.90;;;;;;5058499;28;20684;-58
2022/07/21 04:24:20;;;;;;;10.20;6.80;;;20.20;99.90;;;;;;5058570;28;20256;-60
2022/07/21 04:26:50;;;;;;;12.47;6.83;;;20.10;99.90;;;;;;5061452;28;20255;-64
2022/07/21 04:29:18;;;;;;;10.27;7.40;;;20.20;99.90;;;;;;5059816;28;20287;-67
2022/07/21 04:31:46;;;;;;;13.70;7.20;;;20.20;99.90;;;;;;5061893;28;20250;-61
2022/07/21 04:34:14;;;;;;;11.60;7.60;;;20.20;99.90;;;;;;5061957;28;20233;-61
2022/07/21 04:36:42;;;;;;;12.73;8.07;;;20.10;99.90;;;;;;5055085;28;20289;-59
2022/07/21 04:39:10;;;;;;;8.90;6.23;;;20.00;99.90;;;;;;5056429;28;20257;-58
2022/07/21 04:41:38;;;;;;;12.07;7.03;;;19.90;99.90;;;;;;5058158;28;20228;-59
2022/07/21 04:44:08;;;;;;;14.07;7.40;;;20.00;99.90;;;;;;5055232;28;20702;-58
2022/07/21 04:46:36;;;;;;;12.67;7.37;;;20.00;99.90;;;;;;5055983;28;20247;-59
2022/07/21 04:49:04;;;;;;;12.67;6.50;;;19.90;99.90;;;;;;5056836;28;20230;-58
2022/07/21 04:51:33;;;;;;;13.37;7.43;;;19.90;99.90;;;;;;5055490;28;20275;-58
2022/07/21 04:54:01;;;;;;;14.93;7.97;;;20.00;99.90;;;;;;5055592;28;20263;-58
2022/07/21 04:56:29;;;;;;;13.73;7.60;;;19.90;99.90;;;;;;5055410;28;20224;-58
2022/07/21 04:58:58;;;;;;;16.23;9.00;;;19.80;99.90;;;;;;5055931;28;20694;-57
2022/07/21 05:01:28;;;;;;;12.23;8.03;;;19.70;99.90;;;;;;5053881;28;20238;-58
2022/07/21 05:03:56;;;;;;;11.60;7.90;;;19.70;99.90;;;;;;5055871;28;20239;-59
2022/07/21 05:06:25;;;;;;;10.93;7.90;;;19.70;99.90;;;;;;5056199;28;20323;-58
2022/07/21 05:08:54;;;;;;;14.87;8.13;;;19.60;99.90;;;;;;5055105;28;20223;-59
2022/07/21 05:11:22;;;;;;;9.30;7.80;;;19.70;99.90;;;;;;5056658;28;20228;-59
2022/07/21 05:13:51;;;;;;;11.60;8.00;;;19.70;99.90;;;;;;5057305;28;20289;-59
2022/07/21 05:16:19;;;;;;;9.50;7.60;;;19.70;99.90;;;;;;5053882;28;20216;-59
2022/07/21 05:18:49;;;;;;;12.97;8.80;;;19.70;99.90;;;;;;5054343;28;20301;-59
2022/07/21 05:21:18;;;;;;;12.43;8.50;;;19.80;99.90;;;;;;5054841;28;20231;-59
2022/07/21 05:23:46;;;;;;;15.27;9.00;;;19.80;99.90;;;;;;5055813;28;20276;-61
2022/07/21 05:26:14;;;;;;;12.67;8.57;;;19.80;99.90;;;;;;5053017;28;20773;-60
2022/07/21 05:28:43;;;;;;;12.23;7.97;;;19.90;99.90;;;;;;5053170;28;20228;-62
2022/07/21 05:31:11;;;;;;;15.53;8.90;;;19.80;99.90;;;;;;5053272;28;20227;-60
2022/07/21 05:33:40;;;;;;;11.40;8.63;;;19.80;99.90;;;;;;5055181;28;20757;-59
2022/07/21 05:36:09;;;;;;;13.83;9.23;;;19.80;99.90;;;;;;5055337;28;20683;-59
2022/07/21 05:38:39;;;;;;;15.30;8.67;;;19.80;99.90;;;;;;5053988;28;20703;-60
2022/07/21 05:41:07;;;;;;;12.53;8.60;;;19.80;99.90;;;;;;5054491;28;20721;-59
2022/07/21 05:43:35;;;;;;;12.23;9.03;;;19.80;99.90;;;;;;5050374;28;20255;-57
2022/07/21 05:46:04;;;;;;;13.30;8.00;;;19.80;99.90;;;;;;5052242;28;20591;-58
2022/07/21 05:48:32;;;;;;;14.57;7.67;;;19.80;99.90;;;;;;5054798;28;20572;-59
2022/07/21 05:51:00;;;;;;;11.63;7.73;;;19.80;99.90;;;;;;5054067;28;20216;-61
2022/07/21 05:53:30;;;;;;;11.03;8.10;;;19.80;99.90;;;;;;5050523;28;20224;-59
2022/07/21 05:55:58;;;;;;;11.33;8.43;;;19.80;99.90;;;;;;5053878;28;20649;-59
2022/07/21 05:58:26;;;;;;;13.30;8.40;;;19.80;99.90;;;;;;5047751;28;20227;-58
2022/07/21 06:01:12;;;;;;;12.50;8.60;;;19.90;99.90;;;;;;5052504;28;20314;-59
2022/07/21 06:03:45;;;;;;;11.87;8.00;;;19.80;99.90;;;;;;5052444;28;20273;-60
2022/07/21 06:06:16;;;;;;;13.93;8.73;;;19.90;99.90;;;;;;5051513;28;20224;-59
2022/07/21 06:08:47;;;;;;;15.80;9.40;;;19.90;99.90;;;;;;5052498;28;20242;-58
2022/07/21 06:11:17;;;;;;;11.97;7.90;;;19.90;99.90;;;;;;5054197;28;20311;-58
2022/07/21 06:13:46;;;;;;;9.70;7.67;;;19.90;99.90;;;;;;5056795;28;20236;-59
2022/07/21 06:16:14;;;;;;;13.37;9.10;;;19.90;99.90;;;;;;5053698;28;20224;-59
2022/07/21 06:18:42;;;;;;;11.13;8.13;;;19.90;99.90;;;;;;5053424;28;20314;-59
2022/07/21 06:21:10;;;;;;;12.23;8.27;;;19.90;99.90;;;;;;5053505;28;20631;-59
2022/07/21 06:23:39;;;;;;;14.87;8.97;;;20.00;99.90;;;;;;5053265;28;20232;-59
2022/07/21 06:26:08;;;;;;;11.97;8.10;;;20.00;99.90;;;;;;5053288;28;20319;-59
2022/07/21 06:28:36;;;;;;;14.13;8.47;;;20.00;99.90;;;;;;5052372;28;20262;-59
2022/07/21 06:31:04;;;;;;;14.47;9.47;;;20.00;99.90;;;;;;5052452;28;20330;-59
2022/07/21 06:33:33;;;;;;;11.23;9.07;;;20.00;99.90;;;;;;5053220;28;20627;-59
2022/07/21 06:36:01;;;;;;;15.50;9.07;;;20.00;99.90;;;;;;5053566;28;20586;-59
2022/07/21 06:38:29;;;;;;;13.53;9.67;;;20.00;99.90;;;;;;5053419;28;20651;-59
2022/07/21 06:40:57;;;;;;;14.67;9.57;;;20.00;99.90;;;;;;5053098;28;20315;-59
2022/07/21 06:43:27;;;;;;;13.90;9.47;;;20.00;99.90;;;;;;5057654;28;20247;-59
2022/07/21 06:45:57;;;;;;;15.53;8.37;;;20.00;99.90;;;;;;5052801;28;20310;-59
2022/07/21 06:48:26;;;;;;;12.67;8.90;;;20.00;99.90;;;;;;5053429;28;20314;-59
2022/07/21 06:50:56;;;;;;;12.63;9.80;;;20.00;99.90;;;;;;5052764;28;20654;-59
2022/07/21 06:53:25;;;;;;;13.07;9.30;;;20.10;99.90;;;;;;5053250;28;20235;-59
2022/07/21 06:55:54;;;;;;;11.17;8.80;;;20.00;99.90;;;;;;5052772;28;20226;-59
2022/07/21 06:58:32;;;;;;;12.03;8.90;;;20.10;99.90;;;;;;5052990;28;20652;-59
2022/07/21 07:01:07;;;;;;;14.13;9.07;;;20.10;99.90;;;;;;5052586;28;20239;-59
2022/07/21 07:03:36;;;;;;;11.57;9.10;;;20.10;99.90;;;;;;5052544;28;20281;-59
2022/07/21 07:06:05;;;;;;;13.60;8.90;;;20.10;99.90;;;;;;5050808;28;20799;-59
2022/07/21 07:08:34;;;;;;;13.10;9.43;;;20.20;99.90;;;;;;5034840;28;20319;-59
2022/07/21 07:11:11;;;;;;;13.13;9.53;;;20.10;99.90;;;;;;5032867;28;20231;-60
2022/07/21 07:13:40;;;;;;;13.50;10.43;;;20.20;99.90;;;;;;5047686;28;20275;-60
2022/07/21 07:16:28;;;;;;;14.80;10.70;;;20.20;99.90;;;;;;5052379;28;20220;-59
2022/07/21 07:18:56;;;;;;;13.20;10.83;;;20.20;99.90;;;;;;5052093;28;20721;-60
2022/07/21 07:21:25;;;;;;;14.93;10.03;;;20.20;99.90;;;;;;5052183;28;20327;-59
2022/07/21 07:23:53;;;;;;;12.60;9.07;;;20.30;99.90;;;;;;5051837;28;20220;-59
2022/07/21 07:26:22;;;;;;;11.40;10.20;;;20.30;99.90;;;;;;5052560;28;20237;-59
2022/07/21 07:28:52;;;;;;;13.47;10.43;;;20.40;99.90;;;;;;5050068;28;20238;-59
2022/07/21 07:31:20;;;;;;;15.70;10.07;;;20.40;99.90;;;;;;5052351;28;20619;-60
2022/07/21 07:33:49;;;;;;;14.70;10.37;;;20.40;99.90;;;;;;5051899;28;20277;-59
2022/07/21 07:36:18;;;;;;;14.97;11.73;;;20.50;99.90;;;;;;5048650;28;20311;-59
2022/07/21 07:38:47;;;;;;;14.23;10.33;;;20.50;99.90;;;;;;5051994;28;20227;-60
2022/07/21 07:41:16;;;;;;;15.90;10.87;;;20.50;99.90;;;;;;5052001;28;20695;-59
2022/07/21 07:43:44;;;;;;;13.67;10.17;;;20.60;99.90;;;;;;5054941;28;20239;-59
2022/07/21 07:46:14;;;;;;;11.63;10.03;;;20.70;99.90;;;;;;5049694;28;20318;-60
2022/07/21 07:48:43;;;;;;;17.03;12.60;;;20.70;99.90;;;;;;5052777;28;20245;-60
2022/07/21 07:51:12;;;;;;;15.73;11.33;;;20.80;99.90;;;;;;5052309;28;20265;-60
2022/07/21 07:53:41;;;;;;;13.03;10.40;;;20.80;99.90;;;;;;5052414;28;20277;-60
2022/07/21 07:56:09;;;;;;;14.97;10.40;;;20.90;99.90;;;;;;5051001;28;20227;-59
2022/07/21 07:58:38;;;;;;;12.40;10.53;;;21.00;99.90;;;;;;5051832;28;20226;-59
2022/07/21 08:01:06;;;;;;;16.47;11.50;;;21.00;99.90;;;;;;5051783;28;20227;-60
2022/07/21 08:03:37;;;;;;;15.20;11.00;;;21.10;99.90;;;;;;5052230;28;20263;-60
2022/07/21 08:06:06;;;;;;;14.80;10.90;;;21.10;99.90;;;;;;5051618;28;20309;-62
2022/07/21 08:08:34;;;;;;;14.07;10.47;;;21.20;99.90;;;;;;5052016;28;20234;-60
2022/07/21 08:11:03;;;;;;;13.27;11.13;;;21.30;99.90;;;;;;5052216;28;20271;-60
2022/07/21 08:13:31;;;;;;;14.70;11.93;;;21.50;99.90;;;;;;5057922;28;20314;-60
2022/07/21 08:15:59;;;;;;;15.67;10.97;;;21.80;99.90;;;;;;5055701;28;20227;-60
2022/07/21 08:18:28;;;;;;;17.33;11.63;;;21.90;99.90;;;;;;5054811;28;20238;-60
2022/07/21 08:20:57;;;;;;;13.60;11.63;;;21.90;99.90;;;;;;5047257;28;20277;-60
2022/07/21 08:23:25;;;;;;;14.50;12.63;;;22.00;99.90;;;;;;5055548;28;20319;-60
2022/07/21 08:25:53;;;;;;;14.90;12.40;;;21.90;99.90;;;;;;5055819;28;20263;-60
2022/07/21 08:28:22;;;;;;;14.97;12.47;;;21.80;99.90;;;;;;5054783;28;20240;-60
2022/07/21 08:30:50;;;;;;;14.30;12.80;;;21.70;99.90;;;;;;5054735;28;20748;-60
2022/07/21 08:33:18;;;;;;;17.50;14.73;;;21.70;99.90;;;;;;5055342;28;20278;-60
2022/07/21 08:35:46;;;;;;;17.77;14.50;;;21.70;99.90;;;;;;5055455;28;20760;-61
2022/07/21 08:38:16;;;;;;;15.77;13.50;;;21.60;99.90;;;;;;5055884;28;20321;-61
2022/07/21 08:40:46;;;;;;;14.27;12.80;;;21.50;99.90;;;;;;5055637;28;20754;-60
2022/07/21 08:43:15;;;;;;;16.70;13.77;;;21.50;99.90;;;;;;5058307;28;20663;-60
2022/07/21 08:45:43;;;;;;;16.33;12.77;;;21.50;99.90;;;;;;5055574;28;20262;-61
2022/07/21 08:48:14;;;;;;;14.80;12.80;;;21.40;99.90;;;;;;5055110;28;20761;-61
2022/07/21 08:50:42;;;;;;;14.17;12.27;;;21.40;99.90;;;;;;5055427;28;20323;-60
2022/07/21 08:53:10;;;;;;;16.17;13.70;;;21.40;99.90;;;;;;5055159;28;20334;-60
2022/07/21 08:55:40;;;;;;;15.20;13.13;;;21.30;99.90;;;;;;5054723;28;20244;-61
2022/07/21 08:58:09;;;;;;;16.80;15.03;;;21.20;99.90;;;;;;5053454;28;20238;-61
2022/07/21 09:00:39;;;;;;;17.00;15.40;;;21.20;99.90;;;;;;5054683;28;20232;-61
2022/07/21 09:03:13;;;;;;;17.60;15.00;;;21.10;99.90;;;;;;5054303;28;20702;-61
2022/07/21 09:05:42;;;;;;;17.70;15.97;;;21.00;99.90;;;;;;5054813;28;20231;-61
2022/07/21 09:08:10;;;;;;;17.67;15.77;;;21.00;99.90;;;;;;5054482;28;20750;-61
2022/07/21 09:10:39;;;;;;;17.57;15.77;;;20.90;99.90;;;;;;5055077;28;20322;-60
2022/07/21 09:13:08;;;;;;;17.30;15.50;;;20.90;99.90;;;;;;5053960;28;20221;-61
2022/07/21 09:15:38;;;;;;;17.77;15.93;;;20.90;99.90;;;;;;5052291;28;20246;-61
2022/07/21 09:18:12;;;;;;;18.83;15.23;;;20.90;99.90;;;;;;5054769;28;20281;-61
2022/07/21 09:20:47;;;;;;;16.73;15.00;;;20.90;99.90;;;;;;5054400;28;20259;-61
2022/07/21 09:23:18;;;;;;;17.27;15.47;;;20.90;99.90;;;;;;5054610;28;20642;-61
2022/07/21 09:25:50;;;;;;;17.20;15.33;;;21.00;99.90;;;;;;5053587;28;20653;-61
2022/07/21 09:28:19;;;;;;;17.37;15.57;;;21.00;99.90;;;;;;5054407;28;20321;-61
2022/07/21 09:30:53;;;;;;;18.13;16.33;;;21.20;99.90;;;;;;5051377;28;20289;-61
2022/07/21 09:33:25;;;;;;;16.43;14.93;;;21.30;99.90;;;;;;5054824;28;20215;-61
2022/07/21 09:35:55;;;;;;;16.07;14.43;;;21.50;99.90;;;;;;5054585;28;20638;-61
2022/07/21 09:38:23;;;;;;;17.97;16.17;;;21.60;99.90;;;;;;5052752;28;20220;-63
2022/07/21 09:40:53;;;;;;;18.50;16.73;;;21.70;99.90;;;;;;5046313;28;20238;-61
2022/07/21 09:43:41;;;;;;;17.13;15.40;;;21.70;99.90;;;;;;5058661;28;20247;-59
2022/07/21 09:46:15;;;;;;;17.93;16.13;;;21.70;99.90;;;;;;5037485;28;20231;-61
2022/07/21 09:48:45;;;;;;;17.77;16.03;;;21.80;99.90;;;;;;5053663;28;20678;-61
2022/07/21 09:51:37;;;;;;;18.00;16.33;;;21.80;99.90;;;;;;5053727;28;20239;-61
2022/07/21 09:54:07;;;;;;;17.73;16.03;;;21.90;99.90;;;;;;5052251;28;20222;-61
2022/07/21 09:56:38;;;;;;;17.53;15.77;;;22.00;99.90;;;;;;5053629;28;20261;-61
2022/07/21 09:59:08;;;;;;;17.20;15.50;;;22.10;99.90;;;;;;5053945;28;20330;-61
2022/07/21 10:01:37;;;;;;;16.23;14.73;;;22.20;99.90;;;;;;5052868;28;20228;-61
2022/07/21 10:04:06;;;;;;;17.37;15.53;;;22.40;99.90;;;;;;5052334;28;20372;-61
2022/07/21 10:06:36;;;;;;;15.13;13.70;;;22.60;99.90;;;;;;5052653;28;20238;-61
2022/07/21 10:09:07;;;;;;;15.53;14.13;;;22.60;99.90;;;;;;5053564;28;20310;-61
2022/07/21 10:11:41;;;;;;;14.60;13.30;;;22.70;99.90;;;;;;5053384;28;20229;-61
2022/07/21 10:14:11;;;;;;;13.57;12.43;;;22.70;99.90;;;;;;5051999;28;20212;-61
2022/07/21 10:16:39;;;;;;;14.60;13.23;;;22.80;99.90;;;;;;5050572;28;20232;-61
2022/07/21 10:19:27;;;;;;;14.27;12.73;;;22.90;99.90;;;;;;5053174;28;20267;-61
2022/07/21 10:22:04;;;;;;;12.97;11.87;;;23.10;99.90;;;;;;5052999;28;20285;-62
2022/07/21 10:24:33;;;;;;;14.20;12.90;;;23.30;99.90;;;;;;5053197;28;20667;-62
2022/07/21 10:27:06;;;;;;;14.80;13.47;;;23.50;99.90;;;;;;5049993;28;20311;-62
2022/07/21 10:29:55;;;;;;;13.43;12.33;;;23.80;99.90;;;;;;5052638;28;20233;-62
2022/07/21 10:32:31;;;;;;;15.03;13.63;;;24.00;99.90;;;;;;5050708;28;20638;-62
2022/07/21 10:35:01;;;;;;;15.47;14.13;;;24.30;99.90;;;;;;5049523;28;20303;-62
2022/07/21 10:37:53;;;;;;;13.63;12.33;;;24.70;99.90;;;;;;5052666;28;20231;-63
2022/07/21 10:40:38;;;;;;;14.87;12.60;;;25.60;99.90;;;;;;5040088;28;20324;-64
2022/07/21 10:43:44;;;;;;;13.00;11.80;;;26.00;99.90;;;;;;5049157;28;20260;-64
2022/07/21 10:46:35;;;;;;;11.70;10.70;;;26.10;99.90;;;;;;5040206;28;20238;-63
2022/07/21 10:49:07;;;;;;;11.53;10.43;;;26.20;99.90;;;;;;5047691;28;20256;-64
2022/07/21 10:51:37;;;;;;;11.23;10.23;;;26.30;99.90;;;;;;5051365;28;20247;-64
2022/07/21 10:54:23;;;;;;;11.20;10.10;;;26.20;99.90;;;;;;5053218;28;20681;-64
2022/07/21 10:57:26;;;;;;;8.67;7.97;;;26.20;99.90;;;;;;5052959;28;20363;-64
2022/07/21 11:00:27;;;;;;;8.37;7.67;;;26.90;99.90;;;;;;5052816;28;20232;-65
2022/07/21 11:02:58;;;;;;;7.23;6.60;;;28.00;99.90;;;;;;5027359;28;20239;-65
2022/07/21 11:05:28;;;;;;;6.37;5.87;;;28.40;99.90;;;;;;5051991;28;20270;-65
2022/07/21 11:08:14;;;;;;;5.80;5.30;;;28.50;99.90;;;;;;5052347;28;20264;-65
2022/07/21 11:10:44;;;;;;;6.10;5.60;;;27.90;99.90;;;;;;5052661;28;20727;-64
2022/07/21 11:13:14;;;;;;;5.90;5.40;;;27.70;99.90;;;;;;5053589;28;20250;-65
2022/07/21 11:15:56;;;;;;;4.50;4.10;;;28.00;99.90;;;;;;5052713;28;20313;-66
2022/07/21 11:18:26;;;;;;;5.40;4.57;;;28.40;99.90;;;;;;5052756;28;20223;-65
2022/07/21 11:21:09;;;;;;;4.20;3.90;;;28.50;99.90;;;;;;5052609;28;20260;-65
2022/07/21 11:23:39;;;;;;;4.20;3.90;;;28.00;99.90;;;;;;5052433;28;20659;-65
2022/07/21 11:26:08;;;;;;;4.03;3.57;;;27.50;99.90;;;;;;5052338;28;20288;-65
2022/07/21 11:28:36;;;;;;;4.20;3.80;;;27.20;99.90;;;;;;5052344;28;20277;-65
2022/07/21 11:31:20;;;;;;;4.83;4.30;;;26.80;99.90;;;;;;5052124;28;20234;-65
2022/07/21 11:33:49;;;;;;;5.10;4.70;;;26.50;99.90;;;;;;5052614;28;20552;-65
2022/07/21 11:36:27;;;;;;;5.33;4.37;;;26.40;99.90;;;;;;5052446;28;20225;-64
2022/07/21 11:39:04;;;;;;;4.20;3.80;;;26.30;99.90;;;;;;5052679;28;20230;-65
2022/07/21 11:41:34;;;;;;;3.77;3.47;;;26.00;99.90;;;;;;5055067;28;20587;-64
2022/07/21 11:44:03;;;;;;;3.87;3.57;;;25.90;99.90;;;;;;5053369;28;20234;-65
2022/07/21 11:46:48;;;;;;;4.60;3.40;;;25.70;99.90;;;;;;5052486;28;20265;-64
2022/07/21 11:49:17;;;;;;;3.57;3.27;;;25.50;99.90;;;;;;5056277;28;20263;-65
2022/07/21 11:51:50;;;;;;;3.47;2.90;;;25.50;99.90;;;;;;5054672;28;20301;-64
2022/07/21 11:54:23;;;;;;;2.93;2.70;;;25.50;99.90;;;;;;5049607;28;20455;-64
2022/07/21 11:56:53;;;;;;;2.70;2.50;;;25.50;99.90;;;;;;5056224;28;20231;-64
2022/07/21 11:59:22;;;;;;;2.90;2.70;;;25.60;99.90;;;;;;5056364;28;20640;-64
2022/07/21 12:01:54;;;;;;;2.60;2.40;;;25.90;99.90;;;;;;5055156;28;20333;-64
2022/07/21 12:04:41;;;;;;;3.03;2.80;;;26.40;99.90;;;;;;5054061;28;20223;-65
2022/07/21 12:07:16;;;;;;;3.27;2.33;;;27.30;99.90;;;;;;5047766;28;20232;-65
2022/07/21 12:09:47;;;;;;;2.20;2.00;;;27.70;99.90;;;;;;5048809;28;20286;-66
2022/07/21 12:12:33;;;;;;;2.47;2.20;;;28.00;99.90;;;;;;5060115;28;20583;-66
2022/07/21 12:15:13;;;;;;;2.30;2.10;;;28.20;99.90;;;;;;5056249;28;20262;-67
2022/07/21 12:17:44;;;;;;;2.30;2.10;;;28.30;99.90;;;;;;5055556;28;20284;-66
2022/07/21 12:20:13;;;;;;;2.30;2.10;;;28.30;99.90;;;;;;5055892;28;20265;-66
2022/07/21 12:22:44;;;;;;;3.83;2.40;;;27.90;99.90;;;;;;5055688;28;20325;-66
2022/07/21 12:25:14;;;;;;;2.93;2.40;;;27.60;99.90;;;;;;5053976;28;20235;-66
2022/07/21 12:27:44;;;;;;;2.57;2.33;;;27.30;99.90;;;;;;5054917;28;20231;-66
2022/07/21 12:30:32;;;;;;;3.23;2.50;;;27.40;99.90;;;;;;5048028;28;20732;-66
2022/07/21 12:33:07;;;;;;;2.80;2.60;;;27.40;99.90;;;;;;5055945;28;20270;-66
2022/07/21 12:35:37;;;;;;;3.03;2.67;;;27.60;99.90;;;;;;5052544;28;20239;-66
2022/07/21 12:38:08;;;;;;;4.07;2.80;;;28.00;99.90;;;;;;5035923;28;20263;-67
2022/07/21 12:40:38;;;;;;;4.33;3.40;;;28.30;99.90;;;;;;5054302;28;20224;-67
2022/07/21 12:43:22;;;;;;;3.20;2.90;;;28.40;99.90;;;;;;5059435;28;20691;-67
2022/07/21 12:45:56;;;;;;;4.20;2.97;;;28.30;99.90;;;;;;5055028;28;20235;-67
2022/07/21 12:48:28;;;;;;;3.53;3.23;;;28.30;99.90;;;;;;5055190;28;20223;-67
2022/07/21 12:51:09;;;;;;;3.13;2.90;;;28.40;99.90;;;;;;5055484;28;20228;-67
2022/07/21 12:53:40;;;;;;;3.40;3.20;;;28.40;99.90;;;;;;5053475;28;20717;-68
2022/07/21 12:56:08;;;;;;;2.87;2.67;;;28.60;99.90;;;;;;5054936;28;20246;-67